Time;durP1;ratioP1;P1;durP2;ratioP2;P2;SDS_P1;SDS_P2;PMS_P1;PMS_P2;Temp;Humidity;BMP_temperature;BMP_pressure;BME280_temperature;BME280_humidity;BME280_pressure;Samples;Min_cycle;Max_cycle;Signal;HPM_P1;HPM_P2
2021/12/25 00:00:02;;;;;;;13.40;10.75;;;5.70;99.90;;;;;;5038949;28;20655;-43
2021/12/25 00:02:28;;;;;;;12.18;10.85;;;5.70;99.90;;;;;;5044715;28;20017;-43
2021/12/25 00:04:53;;;;;;;10.75;9.38;;;5.70;99.90;;;;;;5036283;28;20033;-41
2021/12/25 00:07:19;;;;;;;10.52;9.40;;;5.70;99.90;;;;;;5045619;28;20784;-43
2021/12/25 00:09:44;;;;;;;11.85;9.60;;;5.60;99.90;;;;;;5035458;28;20033;-43
2021/12/25 00:12:10;;;;;;;11.07;9.40;;;5.70;99.90;;;;;;5046207;28;20036;-42
2021/12/25 00:14:36;;;;;;;11.43;10.00;;;5.60;99.90;;;;;;5034925;28;20122;-43
2021/12/25 00:17:01;;;;;;;11.52;9.95;;;5.60;99.90;;;;;;5046843;28;20076;-42
2021/12/25 00:19:27;;;;;;;12.20;10.68;;;5.60;99.90;;;;;;5033423;28;20018;-43
2021/12/25 00:21:53;;;;;;;11.93;10.27;;;5.60;99.90;;;;;;5046821;28;20021;-43
2021/12/25 00:24:18;;;;;;;12.43;10.77;;;5.60;99.90;;;;;;5035566;28;20056;-43
2021/12/25 00:26:53;;;;;;;13.50;11.15;;;5.50;99.90;;;;;;5045271;28;20025;-44
2021/12/25 00:34:46;;;;;;;13.63;11.18;;;5.40;99.90;;;;;;5035819;28;20077;-43
2021/12/25 00:37:12;;;;;;;12.65;10.30;;;5.40;99.90;;;;;;5007520;28;20061;-43
2021/12/25 00:39:38;;;;;;;13.05;10.32;;;5.40;99.90;;;;;;5029988;28;20029;-43
2021/12/25 00:42:05;;;;;;;11.43;10.07;;;5.40;99.90;;;;;;5029854;28;20581;-44
2021/12/25 00:44:32;;;;;;;11.82;9.77;;;5.40;99.90;;;;;;5033542;28;20120;-42
2021/12/25 00:47:00;;;;;;;11.57;9.80;;;5.40;99.90;;;;;;5031188;28;20025;-44
2021/12/25 00:49:26;;;;;;;12.05;9.32;;;5.30;99.90;;;;;;5034381;28;20021;-43
2021/12/25 00:51:52;;;;;;;12.13;9.20;;;5.30;99.90;;;;;;5037700;28;20033;-44
2021/12/25 00:54:18;;;;;;;10.68;9.13;;;5.20;99.90;;;;;;5042245;28;20194;-44
2021/12/25 00:56:43;;;;;;;10.38;8.77;;;5.20;99.90;;;;;;5040585;28;20036;-43
2021/12/25 00:59:09;;;;;;;9.55;8.30;;;5.20;99.90;;;;;;5048785;28;20025;-43
2021/12/25 01:01:36;;;;;;;9.75;8.48;;;5.20;99.90;;;;;;5038268;28;20139;-43
2021/12/25 01:04:02;;;;;;;9.18;8.13;;;5.10;99.90;;;;;;5049044;28;20111;-42
2021/12/25 01:06:27;;;;;;;8.50;7.50;;;5.10;99.90;;;;;;5039390;28;20096;-43
2021/12/25 01:08:53;;;;;;;7.95;6.95;;;5.10;99.90;;;;;;5049280;28;20025;-42
2021/12/25 01:11:18;;;;;;;8.13;7.28;;;5.00;99.90;;;;;;5037755;28;20037;-42
2021/12/25 01:13:51;;;;;;;8.77;7.88;;;5.00;99.90;;;;;;5049854;28;20025;-44
2021/12/25 01:31:52;;;;;;;11.48;9.38;;;4.60;99.90;;;;;;5037374;28;20037;-44
2021/12/25 01:37:09;;;;;;;11.10;9.82;;;4.60;99.90;;;;;;5039816;28;20122;-42
2021/12/25 01:50:07;;;;;;;16.55;13.15;;;4.40;99.90;;;;;;5029001;28;20102;-42
2021/12/25 01:52:33;;;;;;;16.40;13.43;;;4.30;99.90;;;;;;5042370;28;20017;-44
2021/12/25 01:55:02;;;;;;;17.38;13.77;;;4.30;99.90;;;;;;5029612;28;20033;-44
2021/12/25 01:57:30;;;;;;;15.93;13.10;;;4.20;99.90;;;;;;5040501;28;20166;-42
2021/12/25 01:59:57;;;;;;;18.17;14.65;;;4.20;99.90;;;;;;5030011;28;20124;-44
2021/12/25 02:02:24;;;;;;;17.00;13.52;;;4.10;99.90;;;;;;5038677;28;20292;-43
2021/12/25 02:04:50;;;;;;;16.92;13.70;;;4.10;99.90;;;;;;5031877;28;20124;-43
2021/12/25 02:07:16;;;;;;;21.27;16.33;;;4.00;99.90;;;;;;5036722;28;20151;-43
2021/12/25 02:09:42;;;;;;;19.92;15.60;;;4.00;99.90;;;;;;5034266;28;20017;-43
2021/12/25 02:12:10;;;;;;;22.00;16.20;;;4.00;99.90;;;;;;5033748;28;20522;-42
2021/12/25 02:14:36;;;;;;;21.70;16.83;;;4.00;99.90;;;;;;5036280;28;20048;-44
2021/12/25 02:17:16;;;;;;;22.98;17.60;;;3.90;99.90;;;;;;5031107;28;20509;-42
2021/12/25 02:19:48;;;;;;;23.90;18.35;;;3.90;99.90;;;;;;5037360;28;20076;-44
2021/12/25 02:22:15;;;;;;;;;;;3.80;99.90;;;;;;5032185;28;20445;-45
2021/12/25 02:24:40;;;;;;;25.00;18.92;;;3.80;99.90;;;;;;5037409;28;20485;-43
2021/12/25 02:27:06;;;;;;;23.05;17.85;;;3.80;99.90;;;;;;5030180;28;20041;-43
2021/12/25 02:29:32;;;;;;;27.27;19.83;;;3.70;99.90;;;;;;5040218;28;20052;-44
2021/12/25 02:32:00;;;;;;;26.60;20.23;;;3.70;99.90;;;;;;5029565;28;20029;-42
2021/12/25 02:34:25;;;;;;;25.63;18.58;;;3.70;99.90;;;;;;5040077;28;20108;-43
2021/12/25 02:36:51;;;;;;;25.77;18.48;;;3.70;99.90;;;;;;5028867;28;20087;-43
2021/12/25 02:39:17;;;;;;;26.85;19.85;;;3.70;99.90;;;;;;5040506;28;20603;-43
2021/12/25 02:41:43;;;;;;;26.23;18.90;;;3.70;99.90;;;;;;5029153;28;20033;-44
2021/12/25 02:44:09;;;;;;;28.27;20.65;;;3.70;99.90;;;;;;5040732;28;20033;-42
2021/12/25 02:46:35;;;;;;;26.10;19.67;;;3.70;99.90;;;;;;5027589;28;20038;-43
2021/12/25 02:49:00;;;;;;;26.88;20.30;;;3.60;99.90;;;;;;5038981;28;20031;-43
2021/12/25 02:51:26;;;;;;;25.60;19.48;;;3.60;99.90;;;;;;5030792;28;20033;-45
2021/12/25 02:53:52;;;;;;;28.90;20.48;;;3.60;99.90;;;;;;5035483;28;20032;-43
2021/12/25 02:56:18;;;;;;;28.67;19.58;;;3.60;99.90;;;;;;5033303;28;20029;-43
2021/12/25 02:58:44;;;;;;;27.85;19.38;;;3.60;99.90;;;;;;5033130;28;20029;-42
2021/12/25 03:01:12;;;;;;;28.10;20.25;;;3.60;99.90;;;;;;5034936;28;20465;-43
2021/12/25 03:03:40;;;;;;;26.75;19.75;;;3.60;99.90;;;;;;5031188;28;20504;-43
2021/12/25 03:06:08;;;;;;;24.48;18.08;;;3.50;99.90;;;;;;5037531;28;20487;-42
2021/12/25 03:08:35;;;;;;;30.48;20.90;;;3.50;99.90;;;;;;5028665;28;20075;-42
2021/12/25 03:11:03;;;;;;;28.63;20.38;;;3.50;99.90;;;;;;5039233;28;20033;-43
2021/12/25 03:16:14;;;;;;;31.63;20.15;;;3.50;99.90;;;;;;5026079;28;20083;-43
2021/12/25 03:18:49;;;;;;;30.65;20.00;;;3.50;99.90;;;;;;5046733;28;20025;-42
2021/12/25 03:21:18;;;;;;;30.08;20.50;;;3.50;99.90;;;;;;5036282;28;20025;-42
2021/12/25 03:23:44;;;;;;;29.35;19.88;;;3.40;99.90;;;;;;5045840;28;20121;-42
2021/12/25 03:26:11;;;;;;;32.22;20.73;;;3.40;99.90;;;;;;5036187;28;20036;-42
2021/12/25 03:28:41;;;;;;;33.35;20.27;;;3.40;99.90;;;;;;5047656;28;20021;-42
2021/12/25 03:31:16;;;;;;;28.17;18.88;;;3.40;99.90;;;;;;5039937;28;20025;-43
2021/12/25 03:33:46;;;;;;;30.40;19.50;;;3.40;99.90;;;;;;5028077;28;20108;-44
2021/12/25 03:36:12;;;;;;;27.38;19.02;;;3.40;99.90;;;;;;5039474;28;20044;-43
2021/12/25 03:38:38;;;;;;;27.23;18.45;;;3.40;99.90;;;;;;5027948;28;20072;-43
2021/12/25 03:41:06;;;;;;;25.30;17.05;;;3.30;99.90;;;;;;5039760;28;20029;-43
2021/12/25 03:43:34;;;;;;;28.70;18.60;;;3.30;99.90;;;;;;5027140;28;20021;-43
2021/12/25 03:45:59;;;;;;;26.65;17.92;;;3.30;99.90;;;;;;5038388;28;20054;-43
2021/12/25 03:58:48;;;;;;;22.92;15.65;;;3.20;99.90;;;;;;5028597;28;20040;-43
2021/12/25 04:04:03;;;;;;;23.30;16.25;;;3.10;99.90;;;;;;5029604;28;20025;-43
2021/12/25 04:06:29;;;;;;;21.20;15.02;;;3.10;99.90;;;;;;5036179;28;20418;-43
2021/12/25 04:08:56;;;;;;;22.83;15.90;;;3.00;99.90;;;;;;5030175;28;20410;-43
2021/12/25 04:11:31;;;;;;;21.90;15.95;;;3.00;99.90;;;;;;5033861;28;20029;-43
2021/12/25 04:13:57;;;;;;;23.77;16.38;;;3.00;99.90;;;;;;5031559;28;20037;-42
2021/12/25 04:16:24;;;;;;;20.20;15.73;;;3.00;99.90;;;;;;5032563;28;20021;-43
2021/12/25 04:18:49;;;;;;;19.90;14.90;;;2.90;99.90;;;;;;5032817;28;20037;-43
2021/12/25 04:21:15;;;;;;;20.80;14.35;;;2.90;99.90;;;;;;5030690;28;20488;-44
2021/12/25 04:23:43;;;;;;;17.98;13.43;;;2.90;99.90;;;;;;5034990;28;20059;-43
2021/12/25 04:26:08;;;;;;;17.73;12.55;;;2.90;99.90;;;;;;5028496;28;20101;-43
2021/12/25 04:28:41;;;;;;;17.52;12.52;;;2.80;99.90;;;;;;5037893;28;20096;-43
2021/12/25 05:04:02;;;;;;;15.32;9.88;;;2.50;99.90;;;;;;5037579;28;20048;-42
2021/12/25 05:06:27;;;;;;;12.38;8.90;;;2.50;99.90;;;;;;5026166;28;20033;-43
2021/12/25 05:08:54;;;;;;;10.52;8.07;;;2.50;99.90;;;;;;5038442;28;20372;-43
2021/12/25 05:11:20;;;;;;;11.30;8.10;;;2.40;99.90;;;;;;5027206;28;20022;-43
2021/12/25 05:13:49;;;;;;;10.35;7.63;;;2.40;99.90;;;;;;5034785;28;20586;-42
2021/12/25 05:16:14;;;;;;;9.55;7.53;;;2.40;99.90;;;;;;5029053;28;20124;-42
2021/12/25 05:18:40;;;;;;;9.75;6.72;;;2.40;99.90;;;;;;5034052;28;20441;-44
2021/12/25 05:21:07;;;;;;;8.18;5.80;;;2.40;99.90;;;;;;5031040;28;20037;-42
2021/12/25 05:23:33;;;;;;;9.43;6.72;;;2.30;99.90;;;;;;5030881;28;20092;-44
2021/12/25 05:25:59;;;;;;;7.05;5.95;;;2.20;99.90;;;;;;5033817;28;20025;-43
2021/12/25 05:28:25;;;;;;;8.15;4.82;;;2.20;99.90;;;;;;5027967;28;20029;-43
2021/12/25 05:30:52;;;;;;;5.10;4.22;;;2.20;99.90;;;;;;5036091;28;20087;-42
2021/12/25 05:33:19;;;;;;;5.78;4.22;;;2.10;99.90;;;;;;5028101;28;20021;-43
2021/12/25 05:35:44;;;;;;;5.80;4.25;;;2.10;99.90;;;;;;5037091;28;20119;-43
2021/12/25 05:38:14;;;;;;;4.30;3.80;;;2.10;99.90;;;;;;5030974;28;20500;-44
2021/12/25 05:40:41;;;;;;;6.70;4.05;;;2.10;99.90;;;;;;5041628;28;20031;-43
2021/12/25 05:43:07;;;;;;;4.57;4.10;;;2.00;99.90;;;;;;5029455;28;20017;-44
2021/12/25 05:45:32;;;;;;;5.25;4.10;;;2.00;99.90;;;;;;5042175;28;20071;-43
2021/12/25 05:47:58;;;;;;;4.93;4.03;;;2.00;99.90;;;;;;5030298;28;20380;-43
2021/12/25 05:50:24;;;;;;;4.47;3.40;;;1.90;99.90;;;;;;5041097;28;20126;-43
2021/12/25 05:52:49;;;;;;;5.35;3.55;;;1.80;99.90;;;;;;5032253;28;20105;-43
2021/12/25 05:55:15;;;;;;;3.28;2.95;;;1.80;99.90;;;;;;5038375;28;20128;-43
2021/12/25 05:57:41;;;;;;;5.70;3.38;;;1.80;99.90;;;;;;5047555;28;20027;-44
2021/12/25 06:00:11;;;;;;;6.38;3.95;;;1.70;99.90;;;;;;5041623;28;20484;-44
2021/12/25 06:02:37;;;;;;;4.30;3.30;;;1.70;99.90;;;;;;5044446;28;20654;-42
2021/12/25 06:05:04;;;;;;;3.72;3.28;;;1.60;99.90;;;;;;5043308;28;20037;-43
2021/12/25 06:07:31;;;;;;;4.57;3.17;;;1.60;99.90;;;;;;5043201;28;20027;-43
2021/12/25 06:09:57;;;;;;;6.45;3.55;;;1.60;99.90;;;;;;5044330;28;20603;-44
2021/12/25 06:12:23;;;;;;;3.17;2.88;;;1.60;99.90;;;;;;5040696;28;20578;-43
2021/12/25 06:14:51;;;;;;;5.75;4.10;;;1.60;99.90;;;;;;5047897;28;20116;-43
2021/12/25 06:17:17;;;;;;;5.38;3.40;;;1.60;99.90;;;;;;5026890;28;20021;-43
2021/12/25 06:19:43;;;;;;;4.05;3.30;;;1.60;99.90;;;;;;5047808;28;20028;-44
2021/12/25 06:22:08;;;;;;;7.75;3.55;;;1.60;99.90;;;;;;5038182;28;20024;-43
2021/12/25 06:24:34;;;;;;;3.67;3.22;;;1.60;99.90;;;;;;5047688;28;20508;-43
2021/12/25 06:26:59;;;;;;;5.30;3.22;;;1.60;99.90;;;;;;5036230;28;20102;-43
2021/12/25 06:29:25;;;;;;;4.47;3.10;;;1.60;99.90;;;;;;5049185;28;20025;-43
2021/12/25 06:31:52;;;;;;;5.63;3.13;;;1.60;99.90;;;;;;5035403;28;20056;-44
2021/12/25 06:34:21;;;;;;;4.40;3.35;;;1.60;99.90;;;;;;5048916;28;20067;-43
2021/12/25 06:36:46;;;;;;;5.05;3.88;;;1.60;99.90;;;;;;5037123;28;20063;-43
2021/12/25 06:39:14;;;;;;;6.30;4.65;;;1.60;99.90;;;;;;5047204;28;20110;-44
2021/12/25 06:41:41;;;;;;;6.90;4.55;;;1.60;99.90;;;;;;5038990;28;20406;-41
2021/12/25 06:44:06;;;;;;;6.38;4.40;;;1.60;99.90;;;;;;5045314;28;20028;-42
2021/12/25 06:46:32;;;;;;;6.07;3.83;;;1.50;99.90;;;;;;5040712;28;20017;-42
2021/12/25 06:48:58;;;;;;;6.50;4.57;;;1.50;99.90;;;;;;5042536;28;20043;-44
2021/12/25 06:51:23;;;;;;;7.20;4.43;;;1.50;99.90;;;;;;5043179;28;20057;-42
2021/12/25 06:53:49;;;;;;;5.68;4.25;;;1.40;99.90;;;;;;5040077;28;20025;-43
2021/12/25 06:56:15;;;;;;;4.95;3.95;;;1.40;99.90;;;;;;5046338;28;20048;-43
2021/12/25 06:58:40;;;;;;;7.28;5.00;;;1.30;99.90;;;;;;5036611;28;20028;-43
2021/12/25 07:01:06;;;;;;;5.88;4.47;;;1.30;99.90;;;;;;5046692;28;20411;-43
2021/12/25 07:03:31;;;;;;;7.18;4.55;;;1.30;99.90;;;;;;5036438;28;20379;-43
2021/12/25 07:05:57;;;;;;;4.85;3.83;;;1.20;99.90;;;;;;5047133;28;20021;-43
2021/12/25 07:08:22;;;;;;;3.97;3.40;;;1.20;99.90;;;;;;5035501;28;20028;-43
2021/12/25 07:10:49;;;;;;;5.43;4.00;;;1.20;99.90;;;;;;5048175;28;20027;-44
2021/12/25 07:13:19;;;;;;;4.63;3.88;;;1.20;99.90;;;;;;5035031;28;20029;-43
2021/12/25 07:15:46;;;;;;;4.60;3.65;;;1.10;99.90;;;;;;5047691;28;20174;-42
2021/12/25 07:18:11;;;;;;;4.38;3.67;;;1.10;99.90;;;;;;5035737;28;20376;-43
2021/12/25 07:20:37;;;;;;;5.53;3.95;;;1.00;99.90;;;;;;5046140;28;20025;-43
2021/12/25 07:23:03;;;;;;;4.72;3.88;;;0.90;99.90;;;;;;5038714;28;20021;-43
2021/12/25 07:25:30;;;;;;;5.68;4.07;;;0.90;99.90;;;;;;5044164;28;20053;-43
2021/12/25 07:27:55;;;;;;;5.82;4.10;;;0.80;99.90;;;;;;5039173;28;20509;-44
2021/12/25 07:30:21;;;;;;;4.25;3.78;;;0.80;99.90;;;;;;5042534;28;20040;-44
2021/12/25 07:32:46;;;;;;;5.10;3.25;;;0.80;99.90;;;;;;5042814;28;20030;-43
2021/12/25 07:35:12;;;;;;;7.53;3.88;;;0.70;99.90;;;;;;5038768;28;20033;-42
2021/12/25 07:37:38;;;;;;;6.43;4.20;;;0.70;99.90;;;;;;5046032;28;20162;-43
2021/12/25 07:40:05;;;;;;;4.03;3.63;;;0.70;99.90;;;;;;5035964;28;20067;-43
2021/12/25 07:42:31;;;;;;;7.38;4.00;;;0.60;99.90;;;;;;5045617;28;20075;-44
2021/12/25 07:45:03;;;;;;;6.28;3.75;;;0.60;99.90;;;;;;5036254;28;20035;-44
2021/12/25 07:47:31;;;;;;;5.53;3.55;;;0.60;99.90;;;;;;5046003;28;20029;-43
2021/12/25 07:49:58;;;;;;;5.50;4.18;;;0.50;99.90;;;;;;5034499;28;20013;-44
2021/12/25 07:52:24;;;;;;;5.43;4.40;;;0.50;99.90;;;;;;5027202;28;20481;-44
2021/12/25 07:54:50;;;;;;;5.00;4.15;;;0.40;99.90;;;;;;5038486;28;20051;-44
2021/12/25 07:57:15;;;;;;;7.25;4.72;;;0.40;99.90;;;;;;5027107;28;20056;-42
2021/12/25 07:59:41;;;;;;;5.07;4.28;;;0.40;99.90;;;;;;5037305;28;20129;-43
2021/12/25 08:02:07;;;;;;;7.20;4.47;;;0.40;99.90;;;;;;5025137;28;20083;-43
2021/12/25 08:04:33;;;;;;;5.85;4.63;;;0.40;99.90;;;;;;5033134;28;20028;-43
2021/12/25 08:06:59;;;;;;;5.70;4.22;;;0.40;99.90;;;;;;5027467;28;20056;-43
2021/12/25 08:09:31;;;;;;;6.55;4.53;;;0.30;99.90;;;;;;5032429;28;20025;-43
2021/12/25 08:11:59;;;;;;;6.03;4.20;;;0.30;99.90;;;;;;5030417;28;20026;-43
2021/12/25 08:14:25;;;;;;;6.30;4.70;;;0.20;99.90;;;;;;5031112;28;20115;-42
2021/12/25 08:16:55;;;;;;;8.10;4.60;;;0.20;99.90;;;;;;5031433;28;20033;-43
2021/12/25 08:19:22;;;;;;;5.30;4.30;;;0.20;99.90;;;;;;5030483;28;20039;-43
2021/12/25 08:21:48;;;;;;;5.15;4.35;;;0.10;99.90;;;;;;5034183;28;20659;-44
2021/12/25 08:24:14;;;;;;;5.60;4.30;;;0.10;99.90;;;;;;5026634;28;20048;-45
2021/12/25 08:26:40;;;;;;;7.38;4.93;;;0.00;99.90;;;;;;5036384;28;20443;-44
2021/12/25 08:29:06;;;;;;;5.07;4.25;;;0.00;99.90;;;;;;5026878;28;20485;-44
2021/12/25 08:31:31;;;;;;;7.20;4.10;;;0.00;99.90;;;;;;5036864;28;20022;-43
2021/12/25 08:33:57;;;;;;;6.43;3.70;;;-0.10;99.90;;;;;;5025787;28;20564;-44
2021/12/25 08:36:22;;;;;;;5.93;3.63;;;-0.10;99.90;;;;;;5038303;28;20033;-43
2021/12/25 08:38:48;;;;;;;6.07;3.80;;;-0.10;99.90;;;;;;5025112;28;20025;-43
2021/12/25 08:41:13;;;;;;;4.22;3.70;;;-0.10;99.90;;;;;;5038265;28;20025;-44
2021/12/25 08:43:46;;;;;;;5.57;3.55;;;-0.20;99.90;;;;;;5025693;28;20357;-43
2021/12/25 08:46:17;;;;;;;;;;;-0.20;99.90;;;;;;5038474;28;20033;-44
2021/12/25 08:48:43;;;;;;;4.43;3.08;;;-0.20;99.90;;;;;;5025888;28;19996;-42
2021/12/25 08:51:09;;;;;;;5.75;3.22;;;-0.20;99.90;;;;;;5050529;28;20159;-44
2021/12/25 08:53:35;;;;;;;5.28;3.03;;;-0.20;99.90;;;;;;5027748;28;20028;-43
2021/12/25 08:56:00;;;;;;;3.55;2.65;;;-0.30;99.90;;;;;;5033661;28;20036;-43
2021/12/25 08:58:30;;;;;;;3.55;3.08;;;-0.30;99.90;;;;;;5029096;28;20022;-44
2021/12/25 09:00:57;;;;;;;3.85;2.90;;;-0.30;99.90;;;;;;5031677;28;20455;-42
2021/12/25 09:03:27;;;;;;;3.42;2.97;;;-0.30;99.90;;;;;;5031404;28;20029;-44
2021/12/25 09:05:56;;;;;;;4.10;2.95;;;-0.30;99.90;;;;;;5028794;28;20025;-45
2021/12/25 09:08:22;;;;;;;3.67;2.80;;;-0.30;99.90;;;;;;5033806;28;20037;-43
2021/12/25 09:10:48;;;;;;;3.53;2.28;;;-0.30;99.90;;;;;;5029372;28;20036;-43
2021/12/25 09:13:13;;;;;;;6.82;2.20;;;-0.30;99.90;;;;;;5039701;28;20036;-43
2021/12/25 09:15:39;;;;;;;4.63;2.15;;;-0.30;99.90;;;;;;5030474;28;20541;-44
2021/12/25 09:18:05;;;;;;;3.20;2.35;;;-0.30;99.90;;;;;;5040515;28;20030;-43
2021/12/25 09:20:30;;;;;;;3.03;2.00;;;-0.30;99.90;;;;;;5032891;28;20374;-44
2021/12/25 09:22:57;;;;;;;3.47;2.70;;;-0.30;99.90;;;;;;5041882;28;20036;-43
2021/12/25 09:25:24;;;;;;;3.67;2.45;;;-0.30;99.90;;;;;;5029671;28;20489;-43
2021/12/25 09:27:50;;;;;;;3.33;2.33;;;-0.30;99.90;;;;;;5041991;28;20029;-44
2021/12/25 09:30:16;;;;;;;3.42;2.20;;;-0.30;99.90;;;;;;5030137;28;20063;-42
2021/12/25 09:32:42;;;;;;;2.88;2.00;;;-0.30;99.90;;;;;;5041692;28;20369;-44
2021/12/25 09:35:08;;;;;;;3.58;2.00;;;-0.30;99.90;;;;;;5029437;28;20492;-44
2021/12/25 09:37:34;;;;;;;3.13;1.70;;;-0.30;99.90;;;;;;5038424;28;20464;-43
2021/12/25 09:40:00;;;;;;;1.60;1.50;;;-0.30;99.90;;;;;;5032957;28;20039;-43
2021/12/25 09:42:26;;;;;;;2.97;1.90;;;-0.30;99.90;;;;;;5035668;28;20040;-43
2021/12/25 09:44:52;;;;;;;2.97;1.70;;;-0.20;99.90;;;;;;5035200;28;20136;-43
2021/12/25 09:47:19;;;;;;;5.35;1.75;;;-0.20;99.90;;;;;;5033172;28;20035;-44
2021/12/25 09:49:44;;;;;;;2.10;1.38;;;-0.20;99.90;;;;;;5037995;28;20085;-42
2021/12/25 09:52:10;;;;;;;1.67;1.25;;;-0.20;99.90;;;;;;5030992;28;20021;-44
2021/12/25 09:54:36;;;;;;;1.80;1.58;;;-0.20;99.90;;;;;;5039090;28;20465;-43
2021/12/25 09:57:02;;;;;;;3.35;1.45;;;-0.20;99.90;;;;;;5031041;28;20037;-43
2021/12/25 09:59:27;;;;;;;1.83;1.35;;;-0.20;99.90;;;;;;5040251;28;20521;-46
2021/12/25 10:01:56;;;;;;;2.47;1.38;;;-0.10;99.90;;;;;;5028805;28;20108;-33
2021/12/25 10:04:35;;;;;;;4.22;1.60;;;-0.10;99.90;;;;;;5041300;28;20025;-34
2021/12/25 10:07:15;;;;;;;1.75;1.00;;;-0.10;99.90;;;;;;5029411;28;20029;-34
2021/12/25 10:09:41;;;;;;;1.73;1.23;;;-0.10;99.90;;;;;;5039516;28;20029;-32
2021/12/25 10:12:10;;;;;;;1.55;1.10;;;-0.10;99.90;;;;;;5029544;28;20037;-33
2021/12/25 10:14:37;;;;;;;1.40;1.08;;;0.00;99.90;;;;;;5041708;28;20203;-33
2021/12/25 10:17:27;;;;;;;1.73;1.40;;;0.00;99.90;;;;;;5028584;28;20029;-32
2021/12/25 10:20:08;;;;;;;1.45;1.30;;;0.00;99.90;;;;;;5036068;28;20120;-33
2021/12/25 10:22:52;;;;;;;3.25;1.98;;;0.00;99.90;;;;;;5047043;28;20028;-33
2021/12/25 10:25:18;;;;;;;2.60;1.60;;;0.00;99.90;;;;;;5038147;28;20061;-42
2021/12/25 10:27:53;;;;;;;3.85;1.70;;;0.10;99.90;;;;;;5028521;28;20029;-45
2021/12/25 10:30:20;;;;;;;2.13;1.40;;;0.10;99.90;;;;;;5035335;28;20108;-44
2021/12/25 10:32:47;;;;;;;2.05;1.50;;;0.10;99.90;;;;;;5028923;28;20385;-44
2021/12/25 10:35:18;;;;;;;1.25;1.15;;;0.10;99.90;;;;;;5040875;28;20499;-45
2021/12/25 10:37:45;;;;;;;1.70;1.40;;;0.20;99.90;;;;;;5027901;28;20501;-44
2021/12/25 10:40:33;;;;;;;2.92;1.50;;;0.20;99.90;;;;;;5041413;28;20056;-43
2021/12/25 10:43:01;;;;;;;1.00;0.90;;;0.20;99.90;;;;;;5028690;28;20091;-42
2021/12/25 10:45:29;;;;;;;2.00;1.40;;;0.20;99.90;;;;;;5040002;28;20028;-42
2021/12/25 10:48:04;;;;;;;1.75;1.17;;;0.20;99.90;;;;;;5028270;28;20528;-43
2021/12/25 10:50:35;;;;;;;1.52;1.10;;;0.30;99.90;;;;;;5040314;28;20029;-43
2021/12/25 10:53:05;;;;;;;2.13;1.45;;;0.30;99.90;;;;;;5032459;28;20619;-43
2021/12/25 10:55:30;;;;;;;5.78;3.72;;;0.30;99.90;;;;;;5035845;28;20029;-45
2021/12/25 10:57:58;;;;;;;6.07;4.70;;;0.30;99.90;;;;;;5047170;28;20021;-43
2021/12/25 11:00:33;;;;;;;8.88;6.60;;;0.40;99.90;;;;;;5037849;28;20655;-44
2021/12/25 11:03:00;;;;;;;3.00;2.70;;;0.40;99.90;;;;;;5046762;28;20029;-43
2021/12/25 11:05:30;;;;;;;1.85;1.45;;;0.40;99.90;;;;;;5038853;28;20684;-44
2021/12/25 11:08:19;;;;;;;3.08;1.73;;;0.40;99.90;;;;;;5044425;28;20025;-44
2021/12/25 11:10:55;;;;;;;3.92;1.27;;;0.40;99.90;;;;;;5037829;28;20044;-43
2021/12/25 11:13:27;;;;;;;2.22;1.30;;;0.40;99.90;;;;;;5046678;28;20401;-44
2021/12/25 11:16:02;;;;;;;1.73;1.20;;;0.40;99.90;;;;;;5038164;28;20038;-44
2021/12/25 11:18:28;;;;;;;2.13;1.38;;;0.50;99.90;;;;;;5036781;28;20037;-43
2021/12/25 11:20:54;;;;;;;2.35;1.00;;;0.50;99.90;;;;;;5035311;28;20037;-43
2021/12/25 11:23:20;;;;;;;2.22;1.10;;;0.50;99.90;;;;;;5032154;28;20036;-43
2021/12/25 11:25:46;;;;;;;2.00;1.35;;;0.50;99.90;;;;;;5031996;28;20587;-43
2021/12/25 11:28:14;;;;;;;2.00;1.20;;;0.50;99.90;;;;;;5034644;28;20037;-44
2021/12/25 11:30:43;;;;;;;3.03;1.40;;;0.50;99.90;;;;;;5030579;28;20061;-44
2021/12/25 11:33:09;;;;;;;4.25;1.85;;;0.60;99.90;;;;;;5034794;28;20100;-43
2021/12/25 11:35:35;;;;;;;1.63;1.17;;;0.60;99.90;;;;;;5028662;28;20534;-43
2021/12/25 11:38:03;;;;;;;1.15;0.98;;;0.60;99.90;;;;;;5038525;28;20528;-44
2021/12/25 11:40:32;;;;;;;2.65;1.15;;;0.60;99.90;;;;;;5028039;28;20502;-43
2021/12/25 11:43:00;;;;;;;1.83;0.93;;;0.60;99.90;;;;;;5038291;28;20071;-44
2021/12/25 11:45:34;;;;;;;1.63;1.23;;;0.70;99.90;;;;;;5028538;28;20037;-43
2021/12/25 11:48:16;;;;;;;1.88;1.17;;;0.70;99.90;;;;;;5035090;28;20030;-43
2021/12/25 11:50:46;;;;;;;1.10;1.00;;;0.80;99.90;;;;;;5028780;28;20056;-44
2021/12/25 11:53:41;;;;;;;2.72;1.20;;;0.80;99.90;;;;;;5038778;28;20079;-44
2021/12/25 11:58:54;;;;;;;2.40;1.27;;;0.80;99.90;;;;;;5038975;28;20115;-44
2021/12/25 12:01:32;;;;;;;1.63;1.30;;;0.80;99.90;;;;;;5028701;28;20731;-43
2021/12/25 12:04:24;;;;;;;1.67;1.30;;;0.90;99.90;;;;;;5026679;28;20100;-42
2021/12/25 12:06:56;;;;;;;1.83;1.10;;;0.90;99.90;;;;;;5044228;28;20032;-43
2021/12/25 12:09:31;;;;;;;1.95;1.30;;;0.90;99.90;;;;;;5038539;28;20025;-44
2021/12/25 12:12:16;;;;;;;2.10;1.10;;;0.90;99.90;;;;;;5044168;28;20028;-44
2021/12/25 12:14:42;;;;;;;1.83;1.00;;;1.00;99.90;;;;;;5039778;28;20060;-42
2021/12/25 12:17:18;;;;;;;1.75;1.20;;;1.00;99.90;;;;;;5043864;28;20017;-44
2021/12/25 12:19:45;;;;;;;1.85;1.38;;;1.00;99.90;;;;;;5038819;28;20040;-44
2021/12/25 12:28:02;;;;;;;3.15;1.40;;;1.00;99.80;;;;;;5041759;28;20033;-43
2021/12/25 12:30:30;;;;;;;2.30;1.33;;;1.00;99.80;;;;;;5041105;28;20353;-44
2021/12/25 12:32:57;;;;;;;2.08;1.10;;;1.00;99.80;;;;;;5041875;28;20045;-44
2021/12/25 12:35:35;;;;;;;5.30;1.25;;;1.10;99.60;;;;;;5039009;28;20045;-43
2021/12/25 12:38:37;;;;;;;3.33;1.10;;;1.10;99.60;;;;;;5041737;28;20413;-43
2021/12/25 12:41:34;;;;;;;1.95;1.40;;;1.10;99.50;;;;;;5043672;28;20075;-43
2021/12/25 12:44:23;;;;;;;4.57;1.77;;;1.10;99.60;;;;;;5031906;28;20068;-43
2021/12/25 12:46:53;;;;;;;3.35;1.50;;;1.10;99.20;;;;;;5010814;28;20061;-43
2021/12/25 12:49:22;;;;;;;2.22;1.25;;;1.10;98.50;;;;;;5039441;28;20036;-43
2021/12/25 12:52:09;;;;;;;2.22;1.30;;;1.10;98.90;;;;;;5010336;28;20040;-44
2021/12/25 12:54:38;;;;;;;3.35;1.60;;;1.10;99.10;;;;;;5032707;28;20080;-42
2021/12/25 12:57:04;;;;;;;2.40;1.40;;;1.10;99.00;;;;;;5050071;28;20075;-43
2021/12/25 12:59:48;;;;;;;2.70;1.70;;;1.10;99.10;;;;;;5039277;28;20381;-43
2021/12/25 13:02:15;;;;;;;3.60;2.00;;;1.20;99.00;;;;;;5011091;28;20496;-44
2021/12/25 13:04:47;;;;;;;2.55;1.55;;;1.20;98.70;;;;;;5035843;28;20029;-43
2021/12/25 13:07:18;;;;;;;4.22;1.90;;;1.20;98.00;;;;;;5031635;28;20021;-43
2021/12/25 13:09:52;;;;;;;1.95;1.50;;;1.10;98.10;;;;;;5039341;28;20029;-44
2021/12/25 13:12:44;;;;;;;3.08;1.25;;;1.20;98.50;;;;;;5030394;28;20488;-43
2021/12/25 13:15:25;;;;;;;1.65;1.40;;;1.20;98.40;;;;;;5041118;28;20040;-43
2021/12/25 13:17:56;;;;;;;2.47;1.60;;;1.20;97.40;;;;;;5009868;28;20029;-44
2021/12/25 13:20:34;;;;;;;2.85;1.35;;;1.20;97.50;;;;;;5038188;28;20033;-44
2021/12/25 13:23:02;;;;;;;2.13;1.27;;;1.20;97.00;;;;;;5009995;28;20030;-42
2021/12/25 13:25:28;;;;;;;2.35;1.45;;;1.20;97.30;;;;;;5036327;28;20068;-43
2021/12/25 13:28:01;;;;;;;5.68;1.70;;;1.20;97.40;;;;;;5030480;28;20560;-43
2021/12/25 13:30:30;;;;;;;3.50;2.00;;;1.20;97.50;;;;;;5039525;28;20020;-43
2021/12/25 13:33:09;;;;;;;2.97;1.75;;;1.20;97.50;;;;;;5030405;28;20095;-44
2021/12/25 13:35:35;;;;;;;2.58;1.70;;;1.20;96.80;;;;;;5039424;28;20051;-43
2021/12/25 13:38:01;;;;;;;1.88;1.40;;;1.20;96.60;;;;;;5032062;28;20029;-42
2021/12/25 13:40:28;;;;;;;3.30;1.58;;;1.20;96.70;;;;;;5036425;28;20025;-42
2021/12/25 13:42:54;;;;;;;3.08;1.42;;;1.10;96.20;;;;;;5034610;28;20062;-43
2021/12/25 13:45:21;;;;;;;2.72;1.60;;;1.10;96.50;;;;;;5034807;28;20091;-44
2021/12/25 13:47:47;;;;;;;2.47;1.50;;;1.10;96.80;;;;;;5035747;28;20539;-43
2021/12/25 13:50:13;;;;;;;3.53;1.40;;;1.10;96.40;;;;;;5032259;28;20021;-43
2021/12/25 13:52:46;;;;;;;3.25;2.08;;;1.10;96.10;;;;;;5039383;28;20037;-43
2021/12/25 13:55:23;;;;;;;1.92;1.27;;;1.10;96.10;;;;;;5030246;28;20099;-42
2021/12/25 13:57:54;;;;;;;2.22;1.50;;;1.10;95.70;;;;;;5028001;28;20029;-42
2021/12/25 14:00:46;;;;;;;2.53;1.70;;;1.10;95.40;;;;;;5047709;28;20032;-43
2021/12/25 14:03:15;;;;;;;4.30;1.90;;;1.10;95.80;;;;;;5028519;28;20040;-42
2021/12/25 14:05:45;;;;;;;4.35;1.80;;;1.10;95.50;;;;;;5046929;28;20082;-43
2021/12/25 14:08:11;;;;;;;3.33;1.60;;;1.10;95.50;;;;;;5038444;28;20025;-43
2021/12/25 14:10:39;;;;;;;2.88;1.70;;;1.10;95.20;;;;;;5047392;28;20026;-43
2021/12/25 14:13:12;;;;;;;2.83;1.30;;;1.10;95.50;;;;;;5037838;28;20029;-42
2021/12/25 14:15:41;;;;;;;2.05;1.33;;;1.00;95.60;;;;;;5046854;28;20037;-44
2021/12/25 14:18:07;;;;;;;1.85;1.58;;;1.00;95.70;;;;;;5038062;28;20110;-42
2021/12/25 14:20:37;;;;;;;2.22;1.80;;;1.00;95.30;;;;;;5048482;28;20053;-43
2021/12/25 14:23:05;;;;;;;4.47;1.15;;;0.90;95.30;;;;;;5036604;28;20043;-43
2021/12/25 14:25:34;;;;;;;2.80;2.08;;;0.90;94.90;;;;;;5048823;28;20048;-43
2021/12/25 14:28:27;;;;;;;1.90;1.35;;;0.90;95.10;;;;;;5036207;28;20061;-44